Wednesday, April 25, 2018, 12:05 AM CDT
Back to Local

KPPF, Parsons Tri-city Airport

Location: Cherryvale, KS, United States Lat: 37.333
Local Time: 12:05 AM CDT ( 5:05 GMT) Lon: -95.5
Time Zone: US/Central Elev: 898 ft

Show me the last for .
Show Decoded

2018-04-24 23:52 METAR KPPF 250452Z AUTO 34008KT 10SM CLR 14/08 A3013 RMK AO2 SLP195 T01390083 $
                 =
2018-04-24 22:52 METAR KPPF 250352Z AUTO 34006KT 10SM CLR 16/08 A3013 RMK AO2 SLP196 T01560083 =
2018-04-24 21:52 METAR KPPF 250252Z AUTO 34010KT 10SM CLR 17/08 A3012 RMK AO2 SLP196 T01670078
                 53021 =
2018-04-24 20:52 METAR KPPF 250152Z AUTO 33012KT 10SM FEW110 17/08 A3010 RMK AO2 SLP190 T01720083
                 =
2018-04-24 19:52 METAR KPPF 250052Z AUTO 01003KT 10SM CLR 21/03 A3006 RMK AO2 SLP176 T02110028 =
2018-04-24 18:52 METAR KPPF 242352Z AUTO 36006KT 10SM CLR 24/02 A3006 RMK AO2 SLP176 T02440017
                 10261 20233 56002 =
2018-04-24 17:52 METAR KPPF 242252Z AUTO 01007KT 10SM CLR 24/02 A3007 RMK AO2 SLP177 T02440022 =
2018-04-24 16:52 METAR KPPF 242152Z AUTO 01010G16KT 10SM CLR 25/02 A3006 RMK AO2 SLP176 T02500017
                 =
2018-04-24 15:52 METAR KPPF 242052Z AUTO 36008G15KT 10SM CLR 26/02 A3007 RMK AO2 SLP177 T02560017
                 56014 =
2018-04-24 14:52 METAR KPPF 241952Z AUTO 36008KT 10SM CLR 26/02 A3008 RMK AO2 SLP182 T02560022 =
2018-04-24 13:52 METAR KPPF 241852Z AUTO 01008KT 10SM CLR 25/02 A3009 RMK AO2 SLP186 T02500017 =
2018-04-24 12:52 METAR KPPF 241752Z AUTO 33006KT 10SM CLR 24/02 A3011 RMK AO2 SLP192 T02390022
                 10244 20050 58010 =
2018-04-24 11:52 METAR KPPF 241652Z AUTO 02007KT 360V060 10SM CLR 24/02 A3012 RMK AO2 SLP195
                 T02390022 =
2018-04-24 10:52 METAR KPPF 241552Z AUTO 01005KT 10SM CLR 22/04 A3013 RMK AO2 SLP199 T02170039 =
2018-04-24 09:52 METAR KPPF 241452Z AUTO 36005KT 10SM CLR 19/06 A3014 RMK AO2 SLP202 T01940056
                 50011 =
2018-04-24 08:52 METAR KPPF 241352Z AUTO 33004KT 10SM CLR 16/08 A3014 RMK AO2 SLP204 T01610078 =
2018-04-24 07:52 METAR KPPF 241252Z AUTO 00000KT 10SM CLR 10/08 A3012 RMK AO2 SLP197 T01000078 =
2018-04-24 06:52 METAR KPPF 241152Z AUTO 00000KT 10SM CLR 05/04 A3011 RMK AO2 SLP192 T00500039
                 10089 20050 53012 =
2018-04-24 05:52 METAR KPPF 241052Z AUTO 00000KT 10SM CLR 06/05 A3008 RMK AO2 SLP184 T00610050 =
2018-04-24 04:52 METAR KPPF 240952Z AUTO 34004KT 10SM CLR 07/04 A3008 RMK AO2 SLP182 T00720044 =
2018-04-24 03:52 METAR KPPF 240852Z AUTO 00000KT 10SM CLR 06/05 A3007 RMK AO2 SLP178 T00610050
                 53006 =
2018-04-24 02:52 METAR KPPF 240752Z AUTO 00000KT 10SM CLR 07/06 A3006 RMK AO2 SLP176 T00670056 =
2018-04-24 01:52 METAR KPPF 240652Z AUTO 00000KT 10SM CLR 07/06 A3005 RMK AO2 SLP173 T00720061 =
2018-04-24 00:52 METAR KPPF 240552Z AUTO 00000KT 10SM CLR 09/06 A3005 RMK AO2 SLP172 T00890061
                 10228 20089 402390089 53002 =

Support USWX by starting your Amazon purchase here.